Date,TemperatureHighF,TemperatureAvgF,TemperatureLowF,DewpointHighF,DewpointAvgF,DewpointLowF,HumidityHigh,HumidityAvg,HumidityLow,PressureMaxIn,PressureMinIn,WindSpeedMaxMPH,WindSpeedAvgMPH,GustSpeedMaxMPH,PrecipitationSumIn
2013-1-1,50,41,34,32,28,22,78,61,35,30.37,30.28,8,3,9,0.00
2013-1-2,53,41,35,33,26,20,79,56,34,30.34,30.22,8,3,10,0.00
2013-1-3,52,42,34,33,29,25,78,62,36,30.34,30.25,7,3,9,0.00
2013-1-4,53,43,36,35,31,26,78,63,41,30.37,30.28,6,3,8,0.00
2013-1-5,55,44,37,40,35,31,87,70,47,30.34,30.16,6,2,7,0.00
2013-1-6,50,45,39,46,41,36,94,86,70,30.25,30.16,3,0,5,0.16
2013-1-7,51,42,38,40,37,32,95,81,60,30.34,30.19,8,1,8,0.00
2013-1-8,53,45,39,42,39,36,98,81,55,30.34,30.22,5,1,6,0.00
2013-1-9,44,42,41,42,40,39,93,91,86,30.25,30.16,5,2,6,0.00
2013-1-10,47,40,34,37,28,21,95,65,38,30.22,30.14,10,2,10,0.00
2013-1-11,49,37,31,28,25,20,83,64,34,30.31,30.19,6,2,8,0.00
2013-1-12,44,36,31,26,18,12,75,48,31,30.31,30.22,9,2,10,0.00
2013-1-13,45,35,28,21,15,8,67,45,31,30.31,30.22,6,2,9,0.00
2013-1-14,48,37,28,20,14,6,57,41,24,30.46,30.25,6,1,8,0.00
2013-1-15,50,39,32,28,22,18,69,52,36,30.58,30.46,8,3,8,0.00
2013-1-16,55,40,33,27,25,23,72,58,29,30.52,30.40,8,4,9,0.00
2013-1-17,45,44,44,30,28,27,57,53,50,30.28,30.28,6,4,9,0.00
2013-1-23,52,52,52,45,44,44,77,75,74,30.16,30.16,6,3,6,0.00
2013-1-24,54,51,48,51,49,46,94,92,89,30.25,30.19,2,0,6,0.04
2013-1-25,56,54,53,53,51,49,97,90,79,30.25,30.14,3,0,8,0.00
2013-1-26,57,54,51,42,36,33,59,52,46,30.05,30.02,7,4,9,0.00
2013-1-27,47,45,42,43,41,37,96,88,69,30.22,30.19,0,0,4,0.00
2013-1-29,46,45,45,34,33,33,63,63,62,30.34,30.34,3,1,4,0.00
2013-1-30,46,45,44,40,39,38,82,78,74,30.37,30.37,5,3,6,0.00
2013-2-2,64,58,46,36,34,33,61,42,34,30.37,30.31,5,2,9,0.00
2013-2-3,61,60,59,38,36,35,44,41,37,30.22,30.19,5,2,6,0.00
2013-2-4,45,43,42,30,30,29,62,58,55,30.22,30.22,6,5,8,0.00
2013-2-9,51,51,51,26,26,26,37,37,37,30.11,30.11,4,4,13,0.00
2013-2-10,52,50,48,27,26,24,39,38,36,30.19,30.16,8,2,8,0.00
2013-2-16,65,59,52,31,29,26,36,32,27,30.28,30.14,5,2,6,0.00
2013-4-14,71,59,51,43,38,28,75,51,22,29.23,29.18,5,1,6,0.00
2013-4-15,64,50,40,46,40,34,94,74,36,29.29,29.15,8,1,10,0.16
2013-4-16,67,53,39,40,27,19,94,40,20,29.53,29.26,12,3,15,0.16
2013-4-17,67,58,39,27,23,19,54,27,19,29.59,29.50,13,4,15,0.00
2013-4-18,73,63,52,38,33,26,53,34,18,29.62,29.53,8,2,8,0.00
2013-4-19,80,68,51,43,40,35,59,39,24,29.59,29.41,8,2,8,0.00
2013-4-20,80,67,52,46,38,29,72,37,19,29.44,29.32,9,3,11,0.00
2013-4-21,83,71,60,47,42,37,50,36,21,29.38,29.29,8,3,11,0.00
2013-4-22,85,71,54,49,38,29,55,33,15,29.32,29.21,10,2,16,0.00
2013-4-23,82,71,51,39,34,30,55,29,16,29.29,29.23,6,2,8,0.00
2013-5-27,68,62,57,56,51,47,94,70,49,29.41,29.32,7,2,8,0.04
2013-5-28,77,66,57,57,50,45,95,59,33,29.35,29.21,6,1,8,0.04
2013-5-29,79,69,57,56,48,40,86,50,28,29.29,29.21,8,1,8,0.04
2013-5-30,84,69,56,52,44,34,77,43,21,29.32,29.23,9,2,10,0.00
2013-5-31,90,77,58,48,41,35,53,29,17,29.32,29.21,9,2,11,0.00
2013-6-1,96,80,63,49,43,35,51,29,13,29.26,29.09,10,2,10,0.00
2013-6-2,96,83,66,51,45,36,50,29,13,29.66,29.03,8,2,48,0.00
2013-6-3,94,77,64,53,50,46,61,39,21,29.78,29.63,7,2,8,0.00
2013-6-4,86,72,58,52,50,47,66,47,30,29.89,29.75,8,2,10,0.00
2013-6-5,88,73,57,54,50,46,70,46,26,29.92,29.78,7,1,7,0.00
2013-6-6,92,80,60,59,52,46,69,41,26,29.86,29.75,7,1,7,0.00
2013-6-7,102,82,66,61,52,39,81,39,14,29.80,29.66,9,2,11,0.00
2013-6-8,106,90,74,57,52,44,45,29,16,29.72,29.60,9,2,10,0.00
2013-6-9,85,74,66,54,50,48,59,44,30,29.80,29.66,9,3,11,0.00
2013-6-10,77,66,58,52,49,47,80,56,35,29.89,29.78,8,2,10,0.00
2013-6-11,88,74,57,55,50,45,86,46,26,29.92,29.83,6,1,7,0.00
2013-6-12,88,73,61,52,44,37,68,37,22,29.92,29.83,6,2,6,0.00
2013-6-13,85,75,56,45,37,30,57,28,16,30.01,29.86,9,2,11,0.00
2013-6-14,89,74,58,46,38,32,44,29,15,29.92,29.75,9,2,11,0.00
2013-6-15,91,74,62,48,42,35,50,34,14,29.89,29.78,8,2,10,0.00
2013-6-16,92,79,60,48,42,32,60,30,14,29.98,29.89,6,1,6,0.00
2013-6-17,89,75,59,49,47,41,69,40,20,29.98,29.89,8,3,9,0.00
2013-6-18,81,68,58,52,46,39,77,47,27,29.95,29.83,8,3,10,0.00
2013-6-19,79,66,55,46,37,26,70,37,17,29.98,29.89,9,2,11,0.00
2013-6-20,85,74,57,46,38,29,43,28,16,29.92,29.86,9,2,11,0.00
2013-6-21,89,77,60,48,40,35,47,28,17,29.89,29.80,10,2,11,0.00
2013-6-22,93,78,62,48,41,32,51,29,14,29.86,29.75,8,2,10,0.00
2013-6-23,79,70,63,57,52,39,74,54,32,29.80,29.72,8,3,9,0.00
2013-6-24,70,64,61,63,60,55,99,87,68,29.89,29.75,6,1,9,0.39
2013-6-25,73,69,61,68,63,60,99,84,74,29.95,29.86,5,0,6,0.04
2013-6-26,88,77,64,64,59,54,92,57,35,30.01,29.92,6,1,8,0.04
2013-6-27,95,81,66,63,58,52,88,49,24,30.04,29.92,9,1,9,0.00
2013-6-28,102,86,72,62,54,43,66,37,14,29.98,29.83,9,2,10,0.00
2013-6-29,105,90,77,58,51,43,42,29,14,29.86,29.75,9,3,10,0.00
2013-6-30,106,90,75,60,52,42,52,30,13,29.78,29.69,8,2,9,0.00
2013-7-1,106,89,74,63,55,44,59,34,14,29.78,29.72,7,2,9,0.00
2013-7-2,106,90,74,63,52,44,56,30,16,29.83,29.75,9,2,9,0.00
2013-7-3,105,95,78,63,58,45,52,31,19,29.83,29.66,8,1,8,0.00
2013-7-4,104,90,79,67,61,54,65,41,19,29.72,29.66,8,1,8,0.00
2013-7-5,92,81,72,50,49,47,43,34,24,29.69,29.63,8,2,8,0.00
2013-7-6,93,80,62,56,49,43,75,36,19,29.75,29.66,6,1,6,0.00
2013-7-7,96,80,65,54,49,42,57,37,16,29.78,29.72,5,2,6,0.00
2013-7-12,98,88,66,50,44,36,48,23,16,29.89,29.83,6,1,8,0.00
2013-7-13,96,79,69,45,42,36,40,28,16,29.89,29.83,6,1,8,0.00
2013-7-14,98,81,68,52,46,40,44,31,16,29.92,29.80,6,2,8,0.00
2013-7-15,91,76,64,53,47,36,55,37,18,29.83,29.72,6,2,8,0.00
2013-7-16,84,72,58,53,49,43,77,46,29,29.95,29.78,6,2,8,0.00
2013-7-17,91,76,58,55,50,37,77,43,20,30.01,29.92,6,1,8,0.00
2013-7-18,97,79,66,55,45,33,49,32,16,29.98,29.83,8,2,9,0.00
2013-7-19,100,84,68,55,48,39,45,30,15,29.86,29.72,6,2,7,0.00
2013-7-20,102,85,71,57,52,46,58,34,17,29.78,29.63,6,1,6,0.00
2013-7-21,97,83,70,56,50,43,53,34,21,29.83,29.69,6,2,9,0.00
2013-7-22,95,78,67,53,46,35,53,34,17,29.89,29.80,6,1,8,0.00
2013-7-23,96,83,71,50,44,36,34,26,16,29.95,29.83,7,2,8,0.00
2013-7-24,98,83,70,57,51,42,53,34,21,29.92,29.80,6,1,7,0.00
2013-7-25,102,86,71,61,56,50,65,39,22,29.92,29.83,6,1,8,0.00
2013-7-26,98,83,69,57,53,50,55,37,26,29.98,29.89,6,1,6,0.00
2013-7-27,95,80,68,56,53,47,60,40,27,29.92,29.78,5,2,8,0.00
2013-7-28,94,79,64,56,51,43,59,40,27,29.80,29.69,6,2,8,0.00
2013-7-29,86,73,61,53,49,43,68,45,29,29.95,29.75,6,2,8,0.00
2013-7-30,90,74,58,54,50,44,77,47,22,30.01,29.92,5,1,6,0.00
2013-7-31,91,77,64,52,48,42,57,38,20,29.98,29.89,6,2,9,0.00
2013-8-1,88,75,62,51,46,40,56,37,21,29.98,29.83,8,2,8,0.00
2013-8-2,92,78,60,52,45,39,50,33,20,29.89,29.80,6,2,8,0.00
2013-8-3,93,77,62,52,45,38,50,35,17,29.89,29.80,6,2,6,0.00
2013-8-4,92,76,63,53,49,43,55,41,22,29.92,29.86,5,1,6,0.00
2013-8-5,91,73,62,53,47,39,60,41,18,29.95,29.83,5,1,6,0.00
2013-8-6,89,74,63,53,49,42,68,43,25,29.98,29.86,6,2,8,0.00
2013-8-7,81,68,60,55,53,48,83,62,34,30.04,29.95,6,3,8,0.00
2013-8-8,85,69,57,58,52,44,92,59,27,29.98,29.83,5,1,7,0.00
2013-8-9,86,70,57,55,51,47,84,55,29,29.92,29.83,5,2,8,0.00
2013-8-10,87,73,60,55,52,48,76,50,28,29.98,29.89,5,1,6,0.00
2013-8-11,90,74,60,55,51,42,71,48,21,29.95,29.83,5,1,7,0.00
2013-8-12,91,76,64,53,46,36,58,37,18,29.92,29.86,7,1,8,0.00
2013-8-13,95,77,64,53,45,39,45,33,19,29.92,29.83,6,3,8,0.00
2013-8-14,96,78,66,52,46,39,46,34,16,29.89,29.80,6,2,7,0.00
2013-8-15,73,71,70,50,49,47,47,45,44,29.86,29.83,0,0,4,0.00
2013-8-19,85,82,80,58,56,54,42,41,39,29.18,29.15,6,1,7,0.00
2013-8-21,91,76,67,54,51,47,54,42,22,29.26,29.18,6,2,8,0.00
2013-9-21,71,62,55,59,55,50,93,79,49,29.23,29.18,6,2,8,0.04
2013-9-22,55,53,51,53,52,50,98,95,92,29.29,29.23,4,1,8,0.04
2013-12-1,45,45,45,36,35,35,69,68,68,29.65,29.65,5,4,6,0.00